Time;durP1;ratioP1;P1;durP2;ratioP2;P2;SDS_P1;SDS_P2;PMS_P1;PMS_P2;Temp;Humidity;BMP_temperature;BMP_pressure;BME280_temperature;BME280_humidity;BME280_pressure;Samples;Min_cycle;Max_cycle;Signal;HPM_P1;HPM_P2
2022/06/23 00:00:30;;;;;;;3.13;1.00;;;;;;;19.77;43.13;99868.13;5053522;28;20052;-84
2022/06/23 00:02:58;;;;;;;2.47;1.08;;;;;;;19.79;43.10;99865.75;5053636;28;20113;-84
2022/06/23 00:05:27;;;;;;;2.92;1.13;;;;;;;19.84;42.98;99864.56;5053855;28;20040;-84
2022/06/23 00:07:59;;;;;;;2.63;1.05;;;;;;;19.79;42.93;99862.19;5053492;28;20029;-83
2022/06/23 00:10:37;;;;;;;2.67;0.90;;;;;;;19.72;43.33;99859.50;5053887;28;20021;-83
2022/06/23 00:13:08;;;;;;;3.50;1.30;;;;;;;19.59;43.68;99855.59;5052295;28;20071;-85
2022/06/23 00:15:40;;;;;;;2.15;0.98;;;;;;;19.61;43.50;99854.00;5053856;28;20316;-85
2022/06/23 00:18:14;;;;;;;3.78;1.20;;;;;;;19.48;43.86;99861.94;5053504;28;20033;-84
2022/06/23 00:20:52;;;;;;;3.17;1.70;;;;;;;19.42;43.85;99858.00;5053733;28;20064;-84
2022/06/23 00:23:31;;;;;;;1.92;0.90;;;;;;;19.42;44.13;99860.78;5053336;28;20037;-84
2022/06/23 00:26:15;;;;;;;4.47;1.17;;;;;;;19.34;44.37;99852.94;5053336;28;20479;-83
2022/06/23 00:28:49;;;;;;;2.42;1.05;;;;;;;19.29;44.52;99856.88;5052951;28;20039;-82
2022/06/23 00:31:31;;;;;;;2.78;1.10;;;;;;;19.33;44.45;99852.16;5052519;28;20044;-85
2022/06/23 00:34:00;;;;;;;2.63;1.10;;;;;;;19.32;44.48;99853.34;5053221;28;20041;-82
2022/06/23 00:36:38;;;;;;;3.15;1.15;;;;;;;19.24;44.80;99860.03;5052925;28;20051;-84
2022/06/23 00:39:17;;;;;;;3.65;1.30;;;;;;;19.15;45.08;99848.66;5052875;28;20029;-83
2022/06/23 00:41:43;;;;;;;3.28;1.30;;;;;;;19.04;45.46;99847.88;5052920;28;20033;-84
2022/06/23 00:44:16;;;;;;;;;;;;;;;19.04;45.55;99850.66;5053085;28;20044;-82
2022/06/23 00:46:47;;;;;;;3.05;1.00;;;;;;;19.06;45.59;99851.81;5052856;28;20363;-85
2022/06/23 00:49:22;;;;;;;2.75;0.90;;;;;;;19.06;45.76;99856.56;5052704;28;20029;-85
2022/06/23 00:51:51;;;;;;;4.03;1.10;;;;;;;19.02;46.13;99847.50;5035121;28;20021;-86
2022/06/23 00:54:22;;;;;;;4.05;1.67;;;;;;;18.94;46.29;99847.50;5053069;28;20044;-84
2022/06/23 00:57:13;;;;;;;3.25;1.40;;;;;;;18.89;46.32;99860.94;5052721;28;20029;-87
2022/06/23 00:59:47;;;;;;;2.90;1.10;;;;;;;18.88;46.42;99851.06;5053048;28;20383;-86
2022/06/23 01:02:42;;;;;;;3.10;1.00;;;;;;;18.82;46.72;99847.16;5056170;28;20094;-85
2022/06/23 01:05:22;;;;;;;2.60;1.10;;;;;;;18.85;47.00;99858.19;5049857;28;20040;-86
2022/06/23 01:07:59;;;;;;;3.42;1.10;;;;;;;18.78;46.96;99851.88;5055133;28;20033;-86
2022/06/23 01:10:39;;;;;;;3.58;1.58;;;;;;;18.70;47.47;99839.28;5062675;28;20036;-85
2022/06/23 01:13:34;;;;;;;3.35;1.17;;;;;;;18.60;47.64;99835.31;5060596;28;20060;-86
2022/06/23 01:16:22;;;;;;;4.32;1.30;;;;;;;18.42;48.32;99838.09;5052711;28;20460;-84
2022/06/23 01:18:51;;;;;;;2.03;0.98;;;;;;;18.34;48.74;99842.03;5052859;28;20033;-84
2022/06/23 01:21:32;;;;;;;2.80;1.17;;;;;;;18.39;48.80;99835.34;5052626;28;20040;-87
2022/06/23 01:24:16;;;;;;;2.72;1.00;;;;;;;18.35;48.93;99835.34;5053381;28;20116;-87
2022/06/23 01:27:19;;;;;;;4.55;1.15;;;;;;;18.42;48.71;99834.53;5052785;28;20036;-87
2022/06/23 01:29:49;;;;;;;2.90;1.20;;;;;;;18.32;49.39;99825.91;5052935;28;20021;-87
2022/06/23 01:32:30;;;;;;;2.83;1.10;;;;;;;18.30;49.25;99824.69;5034831;28;20052;-88
2022/06/23 01:35:24;;;;;;;3.90;1.10;;;;;;;18.13;50.05;99829.00;5053038;28;20466;-88
2022/06/23 01:38:22;;;;;;;3.97;1.50;;;;;;;17.97;50.22;99823.91;5053544;28;20021;-89
2022/06/23 01:40:55;;;;;;;3.22;1.20;;;;;;;18.00;50.46;99827.84;5031406;28;20480;-87
2022/06/23 01:43:36;;;;;;;2.95;1.23;;;;;;;18.06;50.70;99829.00;5054570;28;20510;-86
2022/06/23 01:46:10;;;;;;;4.55;1.20;;;;;;;18.02;50.75;99831.00;5056873;28;20111;-86
2022/06/23 01:49:11;;;;;;;3.95;1.30;;;;;;;17.85;51.62;99832.53;5056258;28;20415;-88
2022/06/23 01:51:46;;;;;;;2.80;1.20;;;;;;;17.73;52.12;99830.91;5024595;28;20044;-88
2022/06/23 01:54:26;;;;;;;3.30;1.95;;;;;;;17.80;52.26;99823.84;5056361;28;20029;-87
2022/06/23 01:56:51;;;;;;;3.95;1.95;;;;;;;17.70;52.98;99823.44;5056408;28;20065;-86
2022/06/23 01:59:26;;;;;;;;;;;;;;;17.63;53.42;99830.84;5057075;28;20064;-87
2022/06/23 02:02:12;;;;;;;3.67;1.38;;;;;;;17.53;54.01;99832.41;5056227;28;19928;-85
2022/06/23 02:05:11;;;;;;;3.88;1.02;;;;;;;17.62;53.87;99823.78;5055060;28;20387;-85
2022/06/23 02:07:39;;;;;;;3.60;1.40;;;;;;;17.48;54.47;99826.50;5056143;28;20117;-83
2022/06/23 02:10:08;;;;;;;3.50;1.50;;;;;;;17.45;54.54;99828.81;5056113;28;20078;-83
2022/06/23 02:12:39;;;;;;;3.72;1.08;;;;;;;17.50;54.67;99837.91;5056133;28;20086;-85
2022/06/23 02:15:12;;;;;;;6.03;1.65;;;;;;;17.45;54.79;99828.81;5038522;28;20383;-88
2022/06/23 02:17:45;;;;;;;2.97;1.30;;;;;;;17.46;54.89;99824.09;5056184;28;20031;-88
2022/06/23 02:20:36;;;;;;;3.58;1.33;;;;;;;17.45;55.18;99830.78;5056719;28;20060;-87
2022/06/23 02:23:42;;;;;;;4.63;1.40;;;;;;;17.42;54.99;99837.09;5056362;28;20116;-87
2022/06/23 02:26:26;;;;;;;2.72;1.10;;;;;;;17.25;55.84;99833.06;5028273;28;20040;-87
2022/06/23 02:29:05;;;;;;;6.68;1.40;;;;;;;17.14;56.25;99830.28;5057278;28;20036;-87
2022/06/23 02:31:56;;;;;;;2.85;1.30;;;;;;;17.20;56.27;99836.22;5056677;28;20035;-87
2022/06/23 02:34:34;;;;;;;4.05;1.55;;;;;;;17.16;56.74;99840.13;5055989;28;20099;-86
2022/06/23 02:37:44;;;;;;;3.88;1.40;;;;;;;17.10;57.08;99837.72;5056532;28;20029;-88
2022/06/23 02:40:19;;;;;;;3.38;1.50;;;;;;;17.02;57.57;99838.88;5056821;28;20033;-86
2022/06/23 02:42:52;;;;;;;3.45;1.50;;;;;;;17.02;57.62;99840.84;5059297;28;20063;-87
2022/06/23 02:45:27;;;;;;;4.05;1.98;;;;;;;17.03;57.54;99834.94;5038516;28;20328;-87
2022/06/23 02:48:07;;;;;;;4.65;1.90;;;;;;;17.09;57.45;99836.16;5056273;28;20075;-86
2022/06/23 02:50:54;;;;;;;3.08;1.20;;;;;;;17.14;57.09;99835.78;5055512;28;20375;-87
2022/06/23 02:53:39;;;;;;;4.07;1.40;;;;;;;17.25;56.92;99832.28;5055265;28;20060;-84
2022/06/23 02:56:19;;;;;;;3.47;1.48;;;;;;;17.25;56.79;99827.56;5055372;28;20040;-87
2022/06/23 02:58:53;;;;;;;4.55;1.58;;;;;;;17.28;56.89;99831.50;5055368;28;20048;-87
2022/06/23 03:01:31;;;;;;;5.13;1.50;;;;;;;17.16;57.18;99835.41;5055512;28;20041;-86
2022/06/23 03:04:04;;;;;;;3.42;1.50;;;;;;;17.12;57.58;99829.06;5055540;28;20028;-86
2022/06/23 03:06:58;;;;;;;2.70;1.17;;;;;;;17.25;57.10;99833.06;5055058;28;20035;-85
2022/06/23 03:09:40;;;;;;;3.15;1.40;;;;;;;17.16;57.63;99834.63;5055860;28;20029;-84
2022/06/23 03:12:21;;;;;;;4.40;1.90;;;;;;;17.14;57.80;99841.31;5055066;28;20120;-84
2022/06/23 03:14:50;;;;;;;3.60;1.20;;;;;;;17.02;58.28;99840.84;5055378;28;20059;-86
2022/06/23 03:17:24;;;;;;;4.20;1.70;;;;;;;16.97;58.59;99833.75;5055216;28;20036;-88
2022/06/23 03:20:01;;;;;;;5.40;1.80;;;;;;;17.00;58.35;99834.94;5055033;28;20029;-87
2022/06/23 03:22:34;;;;;;;4.93;1.45;;;;;;;17.06;58.25;99836.13;5054686;28;20056;-85
2022/06/23 03:25:34;;;;;;;5.15;1.70;;;;;;;16.97;58.45;99828.25;5054924;28;20099;-85
2022/06/23 03:28:20;;;;;;;3.10;1.40;;;;;;;17.06;58.15;99836.91;5031086;28;20049;-86
2022/06/23 03:31:07;;;;;;;3.25;1.30;;;;;;;17.08;58.24;99837.31;5055134;28;20063;-83
2022/06/23 03:33:40;;;;;;;4.70;2.08;;;;;;;17.06;58.35;99825.13;5040401;28;20132;-83
2022/06/23 03:36:17;;;;;;;4.30;1.42;;;;;;;17.01;58.51;99823.53;5034237;28;20025;-83
2022/06/23 03:41:42;;;;;;;3.75;1.40;;;;;;;16.92;58.74;99823.09;5034339;28;20064;-85
2022/06/23 03:44:34;;;;;;;4.47;1.50;;;;;;;17.02;58.46;99819.63;5016699;28;20025;-83
2022/06/23 03:47:39;;;;;;;3.28;1.30;;;;;;;17.06;58.42;99825.91;5029627;28;20067;-84
2022/06/23 03:50:18;;;;;;;2.75;1.27;;;;;;;17.06;58.52;99816.88;5025718;28;20049;-79
2022/06/23 03:53:07;;;;;;;3.80;1.30;;;;;;;17.04;58.63;99817.25;5026969;28;20538;-83
2022/06/23 03:55:49;;;;;;;4.38;1.80;;;;;;;17.00;58.71;99815.69;5033562;28;20055;-76
2022/06/23 03:58:26;;;;;;;4.32;1.30;;;;;;;16.99;58.65;99814.88;5033759;28;20030;-76
2022/06/23 04:01:04;;;;;;;4.07;1.23;;;;;;;16.99;58.65;99817.63;5033567;28;20040;-76
2022/06/23 04:03:43;;;;;;;5.22;1.50;;;;;;;17.01;58.77;99822.75;5033588;28;20077;-76
2022/06/23 04:06:23;;;;;;;3.80;1.27;;;;;;;17.00;59.03;99826.69;5032931;28;20411;-76
2022/06/23 04:09:12;;;;;;;3.65;1.60;;;;;;;16.93;59.28;99830.16;5033522;28;20033;-76
2022/06/23 04:11:47;;;;;;;4.20;1.65;;;;;;;17.04;59.33;99828.25;5033204;28;20040;-76
2022/06/23 04:14:27;;;;;;;3.55;1.30;;;;;;;17.08;58.78;99823.56;5033412;28;20030;-76
2022/06/23 04:17:04;;;;;;;2.65;1.13;;;;;;;17.13;58.77;99823.22;5015625;28;20033;-76
2022/06/23 04:19:31;;;;;;;3.50;1.38;;;;;;;17.22;58.35;99824.81;5033276;28;20448;-76
2022/06/23 04:22:07;;;;;;;4.30;2.08;;;;;;;17.24;58.63;99827.97;5033295;28;20025;-77
2022/06/23 04:24:36;;;;;;;4.13;1.80;;;;;;;17.25;58.40;99830.31;5032935;28;20025;-76
2022/06/23 04:27:11;;;;;;;5.72;1.65;;;;;;;17.28;58.53;99826.78;5032873;28;20136;-76
2022/06/23 04:29:38;;;;;;;3.38;1.45;;;;;;;17.39;58.06;99821.34;5033225;28;20040;-75
2022/06/23 04:32:16;;;;;;;4.53;1.40;;;;;;;17.53;57.25;99815.91;5034923;28;20037;-77
2022/06/23 04:35:05;;;;;;;3.75;1.48;;;;;;;17.61;57.12;99820.22;5052708;28;20060;-77
2022/06/23 04:37:40;;;;;;;3.35;1.65;;;;;;;17.69;56.95;99823.84;5031776;28;20442;-76
2022/06/23 04:40:16;;;;;;;4.78;1.50;;;;;;;17.70;57.03;99828.94;5052385;28;20028;-76
2022/06/23 04:42:50;;;;;;;3.38;1.35;;;;;;;17.80;56.93;99832.09;5052384;28;20467;-76
2022/06/23 04:45:31;;;;;;;3.95;1.52;;;;;;;17.75;56.79;99833.28;5052415;28;20059;-77
2022/06/23 04:48:00;;;;;;;3.55;1.30;;;;;;;17.81;56.55;99831.75;5052730;28;20039;-76
2022/06/23 04:50:55;;;;;;;4.63;1.60;;;;;;;17.85;56.59;99840.00;5052523;28;20163;-77
2022/06/23 04:53:59;;;;;;;3.22;1.40;;;;;;;17.90;57.28;99837.66;5051230;28;20041;-76
2022/06/23 04:56:27;;;;;;;4.57;2.05;;;;;;;17.73;58.33;99836.44;5011167;28;20034;-77
2022/06/23 04:58:59;;;;;;;5.82;1.45;;;;;;;17.69;58.46;99845.88;5043771;28;20476;-76
2022/06/23 05:01:27;;;;;;;5.25;1.60;;;;;;;17.67;58.47;99834.44;5052426;28;20029;-75
2022/06/23 05:03:57;;;;;;;4.05;1.30;;;;;;;17.80;57.99;99834.84;5052489;28;20025;-77
2022/06/23 05:06:48;;;;;;;3.40;1.58;;;;;;;17.95;57.34;99837.25;5052066;28;20036;-77
2022/06/23 05:09:36;;;;;;;3.00;1.45;;;;;;;18.08;56.74;99842.41;5052329;28;20036;-77
2022/06/23 05:12:06;;;;;;;3.47;1.38;;;;;;;18.16;56.56;99844.78;5051897;28;20025;-78
2022/06/23 05:14:51;;;;;;;4.78;1.70;;;;;;;18.27;56.29;99848.31;5052008;28;20468;-77
2022/06/23 05:17:21;;;;;;;3.70;1.65;;;;;;;18.48;55.41;99844.78;5053870;28;20036;-77
2022/06/23 05:19:51;;;;;;;2.92;1.30;;;;;;;18.50;55.54;99838.88;5056086;28;20021;-77
2022/06/23 05:22:25;;;;;;;3.53;1.42;;;;;;;18.51;55.35;99830.22;5056079;28;20033;-77
2022/06/23 05:24:52;;;;;;;4.20;1.58;;;;;;;18.60;55.85;99838.84;5055965;28;20114;-77
2022/06/23 05:27:24;;;;;;;3.60;1.50;;;;;;;18.67;55.85;99835.34;5055812;28;20029;-77
2022/06/23 05:29:55;;;;;;;5.80;1.48;;;;;;;18.77;55.86;99837.28;5055997;28;20117;-77
2022/06/23 05:32:30;;;;;;;3.22;1.48;;;;;;;18.86;55.88;99839.66;5055617;28;20479;-77
2022/06/23 05:35:04;;;;;;;2.92;1.35;;;;;;;18.93;55.69;99839.63;5056025;28;20116;-77
2022/06/23 05:37:36;;;;;;;5.03;1.67;;;;;;;19.03;55.22;99843.56;5055776;28;20029;-78
2022/06/23 05:40:15;;;;;;;4.63;1.85;;;;;;;19.07;55.62;99839.59;5055490;28;20021;-78
2022/06/23 05:42:45;;;;;;;3.47;1.70;;;;;;;19.21;55.37;99844.28;5055706;28;20120;-78
2022/06/23 05:45:18;;;;;;;4.30;1.70;;;;;;;19.33;55.21;99843.88;5055882;28;20025;-78
2022/06/23 05:47:44;;;;;;;2.50;1.45;;;;;;;19.46;54.94;99853.25;5055635;28;20037;-78
2022/06/23 05:50:16;;;;;;;4.05;1.65;;;;;;;19.52;54.74;99848.91;5055453;28;20434;-78
2022/06/23 05:52:58;;;;;;;3.72;1.60;;;;;;;19.65;54.76;99846.50;5055942;28;20056;-78
2022/06/23 05:55:33;;;;;;;3.25;1.50;;;;;;;19.83;53.71;99846.41;5056038;28;20021;-78
2022/06/23 05:58:05;;;;;;;2.78;1.38;;;;;;;20.03;53.08;99849.44;5055182;28;20119;-78
2022/06/23 06:00:36;;;;;;;5.97;2.58;;;;;;;20.06;52.75;99846.66;5055675;28;20421;-78
2022/06/23 06:03:15;;;;;;;3.10;1.30;;;;;;;20.21;52.43;99843.78;5055454;28;20036;-78
2022/06/23 06:05:47;;;;;;;3.47;1.65;;;;;;;20.34;52.57;99844.88;5055495;28;20578;-78
2022/06/23 06:08:31;;;;;;;4.20;1.30;;;;;;;20.94;51.24;99844.34;5055655;28;20112;-78
2022/06/23 06:11:00;;;;;;;4.13;1.70;;;;;;;21.50;49.53;99844.94;5055161;28;20025;-78
2022/06/23 06:13:35;;;;;;;3.38;1.33;;;;;;;21.57;49.69;99844.81;5055672;28;20044;-78
2022/06/23 06:16:04;;;;;;;3.22;1.30;;;;;;;21.41;50.10;99843.84;5055440;28;20025;-78
2022/06/23 06:18:37;;;;;;;6.10;1.27;;;;;;;21.30;50.89;99847.53;5055240;28;20557;-79
2022/06/23 06:21:06;;;;;;;4.88;1.85;;;;;;;21.18;51.29;99845.28;5055035;28;20033;-78
2022/06/23 06:24:06;;;;;;;2.80;1.27;;;;;;;21.24;51.29;99838.13;5055521;28;20041;-78
2022/06/23 06:26:41;;;;;;;4.68;1.50;;;;;;;21.35;51.47;99842.75;5054614;28;20059;-78
2022/06/23 06:29:20;;;;;;;3.00;1.25;;;;;;;21.47;51.58;99836.63;5054041;28;20024;-78
2022/06/23 06:31:55;;;;;;;3.22;1.50;;;;;;;21.68;51.06;99835.59;5037073;28;20053;-78
2022/06/23 06:34:33;;;;;;;2.63;1.20;;;;;;;21.98;50.69;99834.75;5055246;28;20390;-78
2022/06/23 06:36:58;;;;;;;4.60;1.67;;;;;;;22.71;48.89;99831.22;5054544;28;20033;-78
2022/06/23 06:39:28;;;;;;;4.28;1.70;;;;;;;23.62;46.82;99830.66;5054355;28;20033;-78
2022/06/23 06:42:20;;;;;;;4.35;1.40;;;;;;;24.32;45.25;99837.03;5054321;28;20071;-78
2022/06/23 06:44:49;;;;;;;3.53;1.20;;;;;;;25.08;43.59;99829.13;5054607;28;20407;-78
2022/06/23 06:47:21;;;;;;;3.65;1.67;;;;;;;25.34;43.13;99841.09;5054446;28;20021;-78
2022/06/23 06:49:47;;;;;;;3.30;1.40;;;;;;;25.23;43.71;99840.66;5054642;28;20384;-78
2022/06/23 06:52:13;;;;;;;4.65;1.60;;;;;;;25.90;42.18;99835.09;5054809;28;20037;-79
2022/06/23 06:54:43;;;;;;;3.28;1.38;;;;;;;26.35;41.35;99846.03;5054218;28;20032;-78
2022/06/23 06:57:27;;;;;;;3.72;1.70;;;;;;;26.69;40.79;99843.28;5036409;28;20032;-77
2022/06/23 07:00:07;;;;;;;3.33;1.38;;;;;;;26.83;40.74;99838.44;5053815;28;20029;-78
2022/06/23 07:02:45;;;;;;;3.45;1.30;;;;;;;26.52;41.51;99846.66;5054232;28;20037;-77
2022/06/23 07:05:27;;;;;;;3.65;1.45;;;;;;;26.75;41.03;99845.50;5054315;28;20060;-78
2022/06/23 07:08:19;;;;;;;3.83;1.65;;;;;;;27.25;40.13;99838.94;5053706;28;20052;-78
2022/06/23 07:10:50;;;;;;;4.65;1.50;;;;;;;27.19;40.64;99830.34;5054048;28;20076;-78
2022/06/23 07:13:23;;;;;;;4.75;1.85;;;;;;;26.77;41.60;99832.66;5053832;28;20387;-78
2022/06/23 07:15:54;;;;;;;4.57;1.70;;;;;;;26.58;42.56;99848.44;5054022;28;20025;-78
2022/06/23 07:18:35;;;;;;;7.75;2.63;;;;;;;26.88;41.97;99835.84;5053528;28;20025;-77
2022/06/23 07:21:14;;;;;;;3.95;1.70;;;;;;;26.31;43.29;99842.53;5054276;28;20051;-77
2022/06/23 07:23:49;;;;;;;3.45;1.70;;;;;;;26.25;44.01;99844.34;5054118;28;20459;-78
2022/06/23 07:26:38;;;;;;;3.97;1.83;;;;;;;26.35;43.55;99837.66;5053732;28;20371;-76
2022/06/23 07:29:33;;;;;;;7.40;2.50;;;;;;;25.92;44.32;99835.44;5053942;28;20075;-77
2022/06/23 07:32:13;;;;;;;4.10;1.92;;;;;;;26.13;44.26;99834.75;5053173;28;20041;-77
2022/06/23 07:34:45;;;;;;;4.25;2.03;;;;;;;26.09;44.49;99829.28;5053261;28;20394;-77
2022/06/23 07:37:22;;;;;;;3.50;1.65;;;;;;;25.85;45.22;99836.41;5053263;28;20510;-77
2022/06/23 07:39:52;;;;;;;4.35;1.90;;;;;;;25.70;45.74;99843.69;5052466;28;20025;-77
2022/06/23 07:43:00;;;;;;;4.07;1.90;;;;;;;25.84;45.47;99848.81;5053062;28;20115;-77
2022/06/23 07:45:25;;;;;;;;;;;;;;;25.75;45.87;99840.34;5042298;28;20048;-77
2022/06/23 07:47:51;;;;;;;3.47;1.80;;;;;;;25.77;45.82;99840.66;5053281;28;19908;-77
2022/06/23 07:50:16;;;;;;;4.07;1.65;;;;;;;25.50;46.65;99854.97;5053297;28;20071;-77
2022/06/23 07:52:44;;;;;;;3.35;1.77;;;;;;;25.41;46.61;99847.28;5053514;28;20075;-76
2022/06/23 07:55:18;;;;;;;3.95;2.08;;;;;;;25.71;46.40;99842.47;5053412;28;20033;-77
2022/06/23 07:57:44;;;;;;;3.83;1.98;;;;;;;25.76;46.03;99834.31;5053532;28;20024;-76
2022/06/23 08:00:10;;;;;;;5.75;1.90;;;;;;;26.06;45.48;99840.56;5053435;28;20029;-77
2022/06/23 08:02:51;;;;;;;3.13;1.48;;;;;;;26.05;45.35;99839.78;5053090;28;20048;-77
2022/06/23 08:05:27;;;;;;;4.53;2.30;;;;;;;26.11;45.51;99836.44;5053823;28;20430;-76
2022/06/23 08:07:55;;;;;;;3.90;1.95;;;;;;;26.05;45.88;99834.22;5053053;28;20467;-77
2022/06/23 08:10:27;;;;;;;3.90;2.30;;;;;;;26.28;44.46;99849.03;5052872;28;20044;-77
2022/06/23 08:13:01;;;;;;;4.25;2.30;;;;;;;26.05;45.35;99839.00;5053121;28;20056;-77
2022/06/23 08:18:39;;;;;;;4.10;2.23;;;;;;;26.19;44.65;99832.16;5052753;28;20036;-76
2022/06/23 08:21:15;;;;;;;4.28;2.42;;;;;;;26.33;44.65;99831.72;5035254;28;20041;-77
2022/06/23 08:24:00;;;;;;;4.90;2.03;;;;;;;26.09;44.43;99831.31;5053228;28;20040;-77
2022/06/23 08:26:26;;;;;;;3.28;1.70;;;;;;;26.11;44.76;99828.06;5052998;28;20037;-77
2022/06/23 08:28:55;;;;;;;5.50;1.92;;;;;;;26.21;45.00;99835.31;5051336;28;20043;-77
2022/06/23 08:31:21;;;;;;;3.00;1.60;;;;;;;26.13;45.03;99828.38;5052174;28;20120;-77
2022/06/23 08:33:47;;;;;;;4.20;2.15;;;;;;;26.41;43.57;99827.50;5052820;28;20076;-76
2022/06/23 08:36:16;;;;;;;3.42;1.67;;;;;;;26.26;44.32;99829.16;5052616;28;20356;-76
2022/06/23 08:38:47;;;;;;;4.15;2.10;;;;;;;26.46;43.55;99824.13;5052040;28;20028;-76
2022/06/23 08:41:19;;;;;;;6.28;1.80;;;;;;;26.51;43.79;99829.13;5052469;28;20052;-76
2022/06/23 08:43:55;;;;;;;4.70;1.88;;;;;;;26.72;42.61;99819.28;5051980;28;20066;-77
2022/06/23 08:46:49;;;;;;;3.90;1.92;;;;;;;26.67;42.38;99812.22;5034426;28;20368;-76
2022/06/23 08:49:23;;;;;;;4.30;1.90;;;;;;;26.67;42.65;99805.84;5052284;28;20119;-76
2022/06/23 08:52:34;;;;;;;3.78;1.70;;;;;;;26.77;41.62;99810.31;5052091;28;20052;-77
2022/06/23 08:55:13;;;;;;;4.63;1.90;;;;;;;27.00;41.46;99811.91;5045914;28;20064;-77
2022/06/23 08:57:48;;;;;;;3.35;1.77;;;;;;;27.08;41.02;99807.63;5052080;28;20029;-76
2022/06/23 09:00:39;;;;;;;3.63;1.80;;;;;;;26.99;41.25;99811.09;5051854;28;20032;-76
2022/06/23 09:03:19;;;;;;;3.85;1.98;;;;;;;27.33;38.78;99808.72;5050426;28;20035;-76
2022/06/23 09:05:52;;;;;;;3.08;1.52;;;;;;;27.15;39.94;99804.56;5052117;28;20060;-77
2022/06/23 09:08:27;;;;;;;3.35;1.90;;;;;;;27.12;39.65;99808.28;5051751;28;20055;-76
2022/06/23 09:11:09;;;;;;;4.43;1.70;;;;;;;27.04;39.94;99812.53;5051582;28;20025;-76
2022/06/23 09:14:19;;;;;;;3.03;1.60;;;;;;;27.37;38.86;99807.34;5052010;28;20043;-76
2022/06/23 09:17:06;;;;;;;4.57;2.00;;;;;;;27.63;38.02;99818.38;5051949;28;20091;-77
2022/06/23 09:19:37;;;;;;;3.28;1.55;;;;;;;27.48;36.66;99812.53;5051875;28;20428;-76
2022/06/23 09:22:17;;;;;;;4.15;1.70;;;;;;;27.39;36.65;99813.28;5051830;28;20037;-77
2022/06/23 09:24:58;;;;;;;3.50;1.45;;;;;;;27.40;36.39;99809.25;5051804;28;20448;-76
2022/06/23 09:27:36;;;;;;;5.60;2.08;;;;;;;27.53;36.78;99815.50;5051630;28;20028;-76
2022/06/23 09:30:08;;;;;;;3.30;1.80;;;;;;;27.27;37.41;99809.31;5052004;28;20052;-76
2022/06/23 09:32:51;;;;;;;3.38;1.58;;;;;;;27.32;37.38;99790.38;5051728;28;20041;-75
2022/06/23 09:35:54;;;;;;;3.67;1.80;;;;;;;27.49;36.59;99798.09;5052139;28;20033;-76
2022/06/23 09:38:28;;;;;;;4.75;1.60;;;;;;;27.82;35.99;99804.03;5051826;28;20391;-77
2022/06/23 09:41:28;;;;;;;3.17;1.60;;;;;;;27.57;36.70;99795.81;5033454;28;20079;-76
2022/06/23 09:44:19;;;;;;;4.47;1.80;;;;;;;27.71;36.09;99797.28;5027085;28;20044;-76
2022/06/23 09:46:50;;;;;;;3.70;1.85;;;;;;;27.71;35.56;99797.28;5051591;28;20380;-77
2022/06/23 09:49:40;;;;;;;3.63;1.80;;;;;;;27.79;35.53;99804.16;5051979;28;20063;-77
2022/06/23 09:52:26;;;;;;;5.40;1.83;;;;;;;27.98;35.70;99799.41;5051841;28;20079;-76
2022/06/23 09:54:54;;;;;;;;;;;;;;;27.94;35.44;99793.97;5052605;28;20112;-76
2022/06/23 09:57:51;;;;;;;4.88;1.60;;;;;;;27.97;34.97;99795.84;5033888;28;19920;-76
2022/06/23 10:00:25;;;;;;;3.53;1.80;;;;;;;27.99;35.21;99798.19;5051466;28;20166;-77
2022/06/23 10:03:10;;;;;;;2.97;1.50;;;;;;;27.85;34.64;99794.72;5051581;28;20029;-76
2022/06/23 10:05:57;;;;;;;4.65;1.92;;;;;;;27.69;35.85;99789.34;5055404;28;20033;-78
2022/06/23 10:08:39;;;;;;;3.53;1.60;;;;;;;27.99;36.08;99793.38;5055491;28;20174;-77
2022/06/23 10:11:52;;;;;;;3.13;1.60;;;;;;;28.22;34.82;99786.44;5055562;28;20060;-77
2022/06/23 10:14:43;;;;;;;3.38;1.35;;;;;;;28.43;34.27;99785.56;5051209;28;20095;-77
2022/06/23 10:17:23;;;;;;;4.22;1.77;;;;;;;28.34;35.15;99777.16;5037202;28;20036;-77
2022/06/23 10:20:09;;;;;;;3.47;1.80;;;;;;;28.21;35.99;99789.69;5054834;28;20033;-77
2022/06/23 10:22:46;;;;;;;3.50;1.70;;;;;;;28.41;35.52;99784.47;5054925;28;20113;-76
2022/06/23 10:25:20;;;;;;;3.47;1.95;;;;;;;28.62;35.01;99780.75;5055154;28;20474;-77
2022/06/23 10:28:00;;;;;;;4.07;1.50;;;;;;;28.54;34.51;99784.31;5054937;28;20025;-77
2022/06/23 10:30:34;;;;;;;4.88;1.65;;;;;;;28.49;35.08;99787.75;5037015;28;20480;-78
2022/06/23 10:33:20;;;;;;;3.83;1.60;;;;;;;28.58;34.98;99776.56;5054887;28;20048;-77
2022/06/23 10:36:40;;;;;;;4.22;1.60;;;;;;;28.49;35.19;99779.34;5055222;28;20087;-77
2022/06/23 10:39:30;;;;;;;4.60;1.83;;;;;;;28.34;35.64;99771.53;4993139;28;20378;-77
2022/06/23 10:42:13;;;;;;;3.05;1.55;;;;;;;28.59;35.41;99766.91;5047356;28;20116;-77
2022/06/23 10:44:59;;;;;;;3.30;1.73;;;;;;;28.58;34.79;99782.16;5053410;28;20041;-76
2022/06/23 10:48:08;;;;;;;3.30;1.50;;;;;;;28.73;34.33;99767.06;5054634;28;20036;-77
2022/06/23 10:50:47;;;;;;;3.45;1.60;;;;;;;28.84;33.98;99769.38;5054746;28;20033;-78
2022/06/23 10:53:41;;;;;;;5.40;1.75;;;;;;;28.93;34.24;99761.00;5054782;28;20025;-77
2022/06/23 10:56:33;;;;;;;5.25;1.52;;;;;;;29.12;34.63;99766.59;5054665;28;20036;-79
2022/06/23 10:59:30;;;;;;;5.43;1.98;;;;;;;29.05;33.75;99751.63;5040015;28;20040;-78
2022/06/23 11:02:54;;;;;;;3.10;1.70;;;;;;;29.15;33.75;99755.19;5054334;28;20047;-78
2022/06/23 11:05:31;;;;;;;3.85;1.80;;;;;;;29.32;33.69;99752.81;4992306;28;20140;-77
2022/06/23 11:08:07;;;;;;;2.90;1.55;;;;;;;29.12;34.04;99755.38;4992668;28;20045;-77
2022/06/23 11:10:50;;;;;;;;;;;;;;;29.09;33.01;99751.50;5030959;28;20037;-77
2022/06/23 11:13:24;;;;;;;3.58;1.58;;;;;;;29.13;33.29;99748.50;5054184;28;19946;-78
2022/06/23 11:16:05;;;;;;;4.22;1.55;;;;;;;28.85;33.18;99742.91;5054148;28;20033;-78
2022/06/23 11:18:51;;;;;;;3.00;1.40;;;;;;;29.22;32.80;99743.66;5054022;28;20440;-77
2022/06/23 11:21:46;;;;;;;4.18;1.73;;;;;;;29.49;32.96;99742.81;5053919;28;20036;-78
2022/06/23 11:24:36;;;;;;;3.50;1.77;;;;;;;29.14;33.62;99744.47;5021810;28;20037;-77
2022/06/23 11:27:16;;;;;;;4.10;1.90;;;;;;;29.15;33.77;99743.22;5053500;28;20101;-77
2022/06/23 11:30:04;;;;;;;3.55;1.85;;;;;;;29.30;33.84;99735.69;5053669;28;20037;-76
2022/06/23 11:32:39;;;;;;;3.47;1.70;;;;;;;29.29;33.64;99734.91;5053455;28;20148;-77
2022/06/23 11:35:38;;;;;;;3.20;1.67;;;;;;;29.54;33.21;99744.97;5035716;28;20082;-77
2022/06/23 11:38:28;;;;;;;3.78;1.50;;;;;;;29.83;32.84;99738.00;5054106;28;20063;-78
2022/06/23 11:41:03;;;;;;;5.30;1.65;;;;;;;29.79;32.33;99723.38;5053657;28;20029;-76
2022/06/23 11:43:44;;;;;;;4.07;1.90;;;;;;;29.72;32.76;99729.31;5053453;28;20060;-77
2022/06/23 11:46:09;;;;;;;5.43;1.83;;;;;;;29.59;33.02;99721.13;5053603;28;20458;-77
2022/06/23 11:49:02;;;;;;;3.50;1.40;;;;;;;29.75;33.42;99725.56;5054054;28;20117;-77
2022/06/23 11:51:52;;;;;;;3.72;1.83;;;;;;;29.92;32.87;99721.13;5052461;28;20344;-78
2022/06/23 11:54:45;;;;;;;3.08;1.48;;;;;;;29.96;32.51;99732.94;5053883;28;20079;-78
2022/06/23 11:57:42;;;;;;;3.08;1.55;;;;;;;29.96;32.26;99727.31;5053514;28;20040;-77
2022/06/23 12:00:10;;;;;;;3.30;1.48;;;;;;;29.87;32.27;99713.34;5052147;28;20024;-76
2022/06/23 12:02:40;;;;;;;3.08;1.45;;;;;;;30.00;32.39;99705.47;5053273;28;20116;-77
2022/06/23 12:05:23;;;;;;;3.53;1.70;;;;;;;30.38;32.31;99718.00;5052922;28;20025;-77
2022/06/23 12:08:12;;;;;;;8.63;1.63;;;;;;;30.38;31.32;99710.34;5052969;28;20056;-76
2022/06/23 12:10:38;;;;;;;2.95;1.30;;;;;;;30.15;32.17;99697.91;5053153;28;20041;-76
2022/06/23 12:13:05;;;;;;;2.92;1.40;;;;;;;30.15;31.88;99700.72;5053158;28;20059;-77
2022/06/23 12:15:34;;;;;;;3.58;1.55;;;;;;;29.79;32.59;99701.69;5035431;28;20038;-76
2022/06/23 12:18:09;;;;;;;3.58;1.50;;;;;;;29.78;32.20;99702.19;5053039;28;20041;-78
2022/06/23 12:20:46;;;;;;;5.45;1.95;;;;;;;29.94;32.88;99707.38;5053058;28;20108;-76
2022/06/23 12:23:30;;;;;;;3.30;1.50;;;;;;;30.19;32.78;99703.31;5052911;28;20086;-77
2022/06/23 12:26:17;;;;;;;3.30;1.48;;;;;;;30.07;32.90;99701.56;5052542;28;20025;-78
2022/06/23 12:28:56;;;;;;;3.17;1.63;;;;;;;30.19;32.55;99698.50;5034987;28;20477;-77
2022/06/23 12:31:50;;;;;;;3.80;1.77;;;;;;;30.19;32.12;99692.09;5052708;28;20029;-78
2022/06/23 12:34:27;;;;;;;2.75;1.45;;;;;;;30.32;32.36;99683.41;5016682;28;20111;-77
2022/06/23 12:37:27;;;;;;;3.30;1.60;;;;;;;30.63;31.61;99683.03;5052551;28;20060;-77